sensor_id;sensor_type;location;lat;lon;timestamp;pressure;altitude;pressure_sealevel;temperature;humidity
10718;BME280;13513;42.700;23.124;2023-07-29T00:02:02;92855.91;;;18.70;63.07
10718;BME280;13513;42.700;23.124;2023-07-29T00:04:31;92859.48;;;18.36;64.45
10718;BME280;13513;42.700;23.124;2023-07-29T00:06:58;92862.23;;;18.31;66.54
10718;BME280;13513;42.700;23.124;2023-07-29T00:09:25;92859.09;;;18.42;65.92
10718;BME280;13513;42.700;23.124;2023-07-29T00:11:53;92855.59;;;18.44;65.62
10718;BME280;13513;42.700;23.124;2023-07-29T00:14:20;92859.09;;;18.42;65.43
10718;BME280;13513;42.700;23.124;2023-07-29T00:16:48;92850.41;;;18.34;65.27
10718;BME280;13513;42.700;23.124;2023-07-29T00:19:15;92846.38;;;18.37;65.33
10718;BME280;13513;42.700;23.124;2023-07-29T00:21:43;92849.19;;;18.43;64.88
10718;BME280;13513;42.700;23.124;2023-07-29T00:24:10;92854.15;;;18.49;65.26
10718;BME280;13513;42.700;23.124;2023-07-29T00:26:37;92850.70;;;18.49;65.00
10718;BME280;13513;42.700;23.124;2023-07-29T00:29:05;92847.80;;;18.45;65.11
10718;BME280;13513;42.700;23.124;2023-07-29T00:31:33;92845.94;;;18.30;66.35
10718;BME280;13513;42.700;23.124;2023-07-29T00:34:00;92841.21;;;18.24;67.36
10718;BME280;13513;42.700;23.124;2023-07-29T00:36:28;92842.59;;;18.22;68.67
10718;BME280;13513;42.700;23.124;2023-07-29T00:38:55;92836.73;;;18.20;70.29
10718;BME280;13513;42.700;23.124;2023-07-29T00:41:24;92833.29;;;18.35;67.75
10718;BME280;13513;42.700;23.124;2023-07-29T00:43:52;92835.97;;;18.35;67.34
10718;BME280;13513;42.700;23.124;2023-07-29T00:46:20;92839.59;;;18.42;66.52
10718;BME280;13513;42.700;23.124;2023-07-29T00:48:49;92841.84;;;18.35;67.88
10718;BME280;13513;42.700;23.124;2023-07-29T00:51:16;92842.66;;;18.35;68.06
10718;BME280;13513;42.700;23.124;2023-07-29T00:53:44;92840.69;;;18.41;67.74
10718;BME280;13513;42.700;23.124;2023-07-29T00:56:12;92840.00;;;18.33;68.48
10718;BME280;13513;42.700;23.124;2023-07-29T00:58:40;92840.12;;;18.41;67.69
10718;BME280;13513;42.700;23.124;2023-07-29T01:01:08;92836.86;;;18.44;67.73
10718;BME280;13513;42.700;23.124;2023-07-29T01:03:35;92836.56;;;18.46;68.17
10718;BME280;13513;42.700;23.124;2023-07-29T01:06:23;92832.39;;;18.40;68.81
10718;BME280;13513;42.700;23.124;2023-07-29T01:11:48;92835.33;;;18.41;68.47
10718;BME280;13513;42.700;23.124;2023-07-29T01:14:51;92834.63;;;18.35;69.15
10718;BME280;13513;42.700;23.124;2023-07-29T01:17:26;92835.47;;;18.31;68.92
10718;BME280;13513;42.700;23.124;2023-07-29T01:20:00;92831.14;;;18.19;71.07
10718;BME280;13513;42.700;23.124;2023-07-29T01:22:29;92833.20;;;18.08;70.50
10718;BME280;13513;42.700;23.124;2023-07-29T01:24:58;92832.41;;;18.08;71.38
10718;BME280;13513;42.700;23.124;2023-07-29T01:27:26;92839.77;;;18.00;71.40
10718;BME280;13513;42.700;23.124;2023-07-29T01:29:55;92833.56;;;18.02;70.50
10718;BME280;13513;42.700;23.124;2023-07-29T01:32:35;92829.80;;;18.19;69.30
10718;BME280;13513;42.700;23.124;2023-07-29T01:35:07;92836.83;;;18.15;68.74
10718;BME280;13513;42.700;23.124;2023-07-29T01:37:33;92838.88;;;18.20;68.68
10718;BME280;13513;42.700;23.124;2023-07-29T01:40:02;92844.94;;;18.26;68.39
10718;BME280;13513;42.700;23.124;2023-07-29T01:42:30;92835.81;;;18.27;67.90
10718;BME280;13513;42.700;23.124;2023-07-29T01:44:57;92835.81;;;18.27;67.73
10718;BME280;13513;42.700;23.124;2023-07-29T01:47:25;92833.58;;;18.18;68.19
10718;BME280;13513;42.700;23.124;2023-07-29T01:49:52;92837.73;;;18.24;68.60
10718;BME280;13513;42.700;23.124;2023-07-29T01:52:20;92833.23;;;18.22;68.46
10718;BME280;13513;42.700;23.124;2023-07-29T01:54:47;92837.69;;;18.26;68.26
10718;BME280;13513;42.700;23.124;2023-07-29T01:57:15;92834.30;;;18.21;68.61
10718;BME280;13513;42.700;23.124;2023-07-29T01:59:42;92833.38;;;18.28;68.38
10718;BME280;13513;42.700;23.124;2023-07-29T02:02:09;92829.93;;;18.27;68.28
10718;BME280;13513;42.700;23.124;2023-07-29T02:04:37;92833.48;;;18.23;66.92
10718;BME280;13513;42.700;23.124;2023-07-29T02:07:05;92830.58;;;18.19;67.24
10718;BME280;13513;42.700;23.124;2023-07-29T02:09:32;92831.97;;;18.17;69.09
10718;BME280;13513;42.700;23.124;2023-07-29T02:12:00;92832.97;;;18.21;68.50
10718;BME280;13513;42.700;23.124;2023-07-29T02:14:27;92832.90;;;18.26;67.96
10718;BME280;13513;42.700;23.124;2023-07-29T02:16:54;92832.44;;;18.21;68.06
10718;BME280;13513;42.700;23.124;2023-07-29T02:19:22;92833.20;;;18.08;70.12
10718;BME280;13513;42.700;23.124;2023-07-29T02:21:49;92835.61;;;18.07;69.06
10718;BME280;13513;42.700;23.124;2023-07-29T02:24:17;92832.59;;;18.11;68.42
10718;BME280;13513;42.700;23.124;2023-07-29T02:26:44;92831.58;;;18.10;68.73
10718;BME280;13513;42.700;23.124;2023-07-29T02:29:11;92839.38;;;18.06;69.60
10718;BME280;13513;42.700;23.124;2023-07-29T02:31:39;92839.38;;;18.06;68.61
10718;BME280;13513;42.700;23.124;2023-07-29T02:34:06;92829.22;;;18.06;70.30
10718;BME280;13513;42.700;23.124;2023-07-29T02:36:34;92831.88;;;18.08;70.41
10718;BME280;13513;42.700;23.124;2023-07-29T02:39:01;92832.36;;;18.10;70.22
10718;BME280;13513;42.700;23.124;2023-07-29T02:41:28;92828.59;;;18.11;70.16
10718;BME280;13513;42.700;23.124;2023-07-29T02:43:56;92829.63;;;18.13;70.21
10718;BME280;13513;42.700;23.124;2023-07-29T02:46:23;92832.88;;;18.12;70.51
10718;BME280;13513;42.700;23.124;2023-07-29T02:48:51;92830.78;;;18.09;70.29
10718;BME280;13513;42.700;23.124;2023-07-29T02:51:18;92835.59;;;18.10;70.74
10718;BME280;13513;42.700;23.124;2023-07-29T02:53:45;92838.63;;;18.03;71.33
10718;BME280;13513;42.700;23.124;2023-07-29T02:56:13;92838.63;;;18.03;71.14
10718;BME280;13513;42.700;23.124;2023-07-29T02:58:40;92846.98;;;17.99;71.20
10718;BME280;13513;42.700;23.124;2023-07-29T03:01:08;92836.52;;;18.03;71.85
10718;BME280;13513;42.700;23.124;2023-07-29T03:03:35;92840.60;;;18.14;71.02
10718;BME280;13513;42.700;23.124;2023-07-29T03:06:05;92842.95;;;18.15;71.14
10718;BME280;13513;42.700;23.124;2023-07-29T03:08:33;92845.20;;;18.11;72.55
10718;BME280;13513;42.700;23.124;2023-07-29T03:11:09;92849.89;;;17.84;75.19
10718;BME280;13513;42.700;23.124;2023-07-29T03:13:37;92859.23;;;17.87;75.42
10718;BME280;13513;42.700;23.124;2023-07-29T03:18:35;92859.24;;;17.68;75.48
10718;BME280;13513;42.700;23.124;2023-07-29T03:21:03;92863.76;;;17.52;75.96
10718;BME280;13513;42.700;23.124;2023-07-29T03:23:31;92863.73;;;17.33;77.33
10718;BME280;13513;42.700;23.124;2023-07-29T03:26:00;92860.27;;;17.54;77.08
10718;BME280;13513;42.700;23.124;2023-07-29T03:28:32;92854.52;;;17.63;76.10
10718;BME280;13513;42.700;23.124;2023-07-29T03:30:59;92853.11;;;17.49;77.02
10718;BME280;13513;42.700;23.124;2023-07-29T03:33:27;92850.72;;;17.50;77.72
10718;BME280;13513;42.700;23.124;2023-07-29T03:35:54;92857.75;;;17.62;77.59
10718;BME280;13513;42.700;23.124;2023-07-29T03:38:22;92854.33;;;17.75;77.22
10718;BME280;13513;42.700;23.124;2023-07-29T03:40:51;92850.66;;;17.87;76.88
10718;BME280;13513;42.700;23.124;2023-07-29T03:43:19;92848.27;;;18.02;76.41
10718;BME280;13513;42.700;23.124;2023-07-29T03:45:47;92850.69;;;18.17;75.98
10718;BME280;13513;42.700;23.124;2023-07-29T03:48:14;92848.61;;;18.30;75.34
10718;BME280;13513;42.700;23.124;2023-07-29T03:50:42;92849.24;;;18.40;74.76
10718;BME280;13513;42.700;23.124;2023-07-29T03:53:09;92847.12;;;18.53;73.90
10718;BME280;13513;42.700;23.124;2023-07-29T03:55:37;92848.16;;;18.55;73.19
10718;BME280;13513;42.700;23.124;2023-07-29T03:58:04;92852.34;;;18.61;73.31
10718;BME280;13513;42.700;23.124;2023-07-29T04:00:32;92854.22;;;18.74;70.62
10718;BME280;13513;42.700;23.124;2023-07-29T04:02:59;92848.98;;;18.82;69.25
10718;BME280;13513;42.700;23.124;2023-07-29T04:05:27;92842.28;;;18.69;68.87
10718;BME280;13513;42.700;23.124;2023-07-29T04:07:54;92847.63;;;18.96;68.39
10718;BME280;13513;42.700;23.124;2023-07-29T04:10:22;92852.98;;;19.09;68.66
10718;BME280;13513;42.700;23.124;2023-07-29T04:12:49;92853.50;;;19.22;70.16
10718;BME280;13513;42.700;23.124;2023-07-29T04:15:17;92852.73;;;19.35;69.83
10718;BME280;13513;42.700;23.124;2023-07-29T04:17:45;92857.55;;;19.47;68.74
10718;BME280;13513;42.700;23.124;2023-07-29T04:20:12;92849.23;;;19.59;67.28
10718;BME280;13513;42.700;23.124;2023-07-29T04:22:39;92858.52;;;19.76;67.45
10718;BME280;13513;42.700;23.124;2023-07-29T04:25:07;92853.69;;;19.75;71.87
10718;BME280;13513;42.700;23.124;2023-07-29T04:27:34;92852.98;;;19.72;72.75
10718;BME280;13513;42.700;23.124;2023-07-29T04:30:02;92859.22;;;19.32;73.17
10718;BME280;13513;42.700;23.124;2023-07-29T04:32:29;92862.65;;;19.08;75.12
10718;BME280;13513;42.700;23.124;2023-07-29T04:34:57;92857.19;;;18.99;75.08
10718;BME280;13513;42.700;23.124;2023-07-29T04:37:24;92866.72;;;19.05;74.41
10718;BME280;13513;42.700;23.124;2023-07-29T04:39:52;92861.20;;;19.13;72.32
10718;BME280;13513;42.700;23.124;2023-07-29T04:42:19;92869.64;;;19.33;69.08
10718;BME280;13513;42.700;23.124;2023-07-29T04:44:47;92871.34;;;19.54;66.52
10718;BME280;13513;42.700;23.124;2023-07-29T04:47:14;92870.23;;;19.55;70.26
10718;BME280;13513;42.700;23.124;2023-07-29T04:49:41;92868.59;;;20.03;71.15
10718;BME280;13513;42.700;23.124;2023-07-29T04:52:09;92877.75;;;20.35;69.52
10718;BME280;13513;42.700;23.124;2023-07-29T04:54:36;92872.22;;;20.62;67.27
10718;BME280;13513;42.700;23.124;2023-07-29T04:57:04;92879.98;;;20.94;63.43
10718;BME280;13513;42.700;23.124;2023-07-29T04:59:31;92875.11;;;21.24;61.20
10718;BME280;13513;42.700;23.124;2023-07-29T05:01:59;92875.73;;;21.86;56.71
10718;BME280;13513;42.700;23.124;2023-07-29T05:04:27;92878.56;;;22.32;57.30
10718;BME280;13513;42.700;23.124;2023-07-29T05:06:54;92882.32;;;22.96;53.85
10718;BME280;13513;42.700;23.124;2023-07-29T05:09:22;92885.13;;;23.46;52.35
10718;BME280;13513;42.700;23.124;2023-07-29T05:11:49;92882.13;;;24.18;50.79
10718;BME280;13513;42.700;23.124;2023-07-29T05:14:17;92886.95;;;24.98;47.81
10718;BME280;13513;42.700;23.124;2023-07-29T05:16:45;92888.95;;;25.45;46.51
10718;BME280;13513;42.700;23.124;2023-07-29T05:19:12;92891.62;;;25.93;44.66
10718;BME280;13513;42.700;23.124;2023-07-29T05:21:40;92900.27;;;26.23;43.81
10718;BME280;13513;42.700;23.124;2023-07-29T05:24:07;92897.55;;;26.35;43.76
10718;BME280;13513;42.700;23.124;2023-07-29T05:26:35;92904.28;;;25.77;43.54
10718;BME280;13513;42.700;23.124;2023-07-29T05:29:02;92898.77;;;25.44;44.25
10718;BME280;13513;42.700;23.124;2023-07-29T05:31:30;92902.02;;;25.85;44.96
10718;BME280;13513;42.700;23.124;2023-07-29T05:33:58;92901.10;;;26.11;43.96
10718;BME280;13513;42.700;23.124;2023-07-29T05:36:26;92897.43;;;26.37;43.25
10718;BME280;13513;42.700;23.124;2023-07-29T05:38:53;92903.44;;;26.31;43.04
10718;BME280;13513;42.700;23.124;2023-07-29T05:41:20;92900.97;;;26.59;41.75
10718;BME280;13513;42.700;23.124;2023-07-29T05:43:48;92905.98;;;26.45;40.86
10718;BME280;13513;42.700;23.124;2023-07-29T05:46:15;92909.45;;;26.86;40.46
10718;BME280;13513;42.700;23.124;2023-07-29T05:48:43;92905.55;;;27.20;39.98
10718;BME280;13513;42.700;23.124;2023-07-29T05:51:10;92904.91;;;27.33;40.63
10718;BME280;13513;42.700;23.124;2023-07-29T05:53:38;92902.92;;;27.92;39.72
10718;BME280;13513;42.700;23.124;2023-07-29T05:56:05;92907.39;;;28.09;39.67
10718;BME280;13513;42.700;23.124;2023-07-29T05:58:33;92904.73;;;28.38;37.84
10718;BME280;13513;42.700;23.124;2023-07-29T06:01:00;92905.70;;;28.83;37.46
10718;BME280;13513;42.700;23.124;2023-07-29T06:03:27;92903.47;;;29.17;36.89
10718;BME280;13513;42.700;23.124;2023-07-29T06:05:55;92906.94;;;29.69;34.85
10718;BME280;13513;42.700;23.124;2023-07-29T06:08:22;92903.14;;;29.64;35.47
10718;BME280;13513;42.700;23.124;2023-07-29T06:10:50;92903.98;;;29.36;35.86
10718;BME280;13513;42.700;23.124;2023-07-29T06:13:17;92899.76;;;29.06;37.47
10718;BME280;13513;42.700;23.124;2023-07-29T06:15:44;92903.03;;;28.87;36.52
10718;BME280;13513;42.700;23.124;2023-07-29T06:18:12;92901.41;;;29.11;36.62
10718;BME280;13513;42.700;23.124;2023-07-29T06:20:39;92897.24;;;29.07;36.59
10718;BME280;13513;42.700;23.124;2023-07-29T06:23:08;92896.83;;;28.77;36.93
10718;BME280;13513;42.700;23.124;2023-07-29T06:25:35;92891.02;;;28.88;38.35
10718;BME280;13513;42.700;23.124;2023-07-29T06:28:03;92890.08;;;29.09;36.37
10718;BME280;13513;42.700;23.124;2023-07-29T06:30:31;92891.08;;;28.44;37.95
10718;BME280;13513;42.700;23.124;2023-07-29T06:32:58;92888.45;;;28.22;38.49
10718;BME280;13513;42.700;23.124;2023-07-29T06:35:26;92889.63;;;28.06;39.46
10718;BME280;13513;42.700;23.124;2023-07-29T06:37:53;92884.50;;;28.64;38.38
10718;BME280;13513;42.700;23.124;2023-07-29T06:40:20;92887.86;;;28.86;37.98
10718;BME280;13513;42.700;23.124;2023-07-29T06:42:48;92888.52;;;29.08;38.37
10718;BME280;13513;42.700;23.124;2023-07-29T06:45:16;92893.20;;;29.30;37.19
10718;BME280;13513;42.700;23.124;2023-07-29T06:47:45;92890.06;;;29.18;36.71
10718;BME280;13513;42.700;23.124;2023-07-29T06:50:13;92887.66;;;29.36;37.51
10718;BME280;13513;42.700;23.124;2023-07-29T06:52:40;92890.48;;;29.75;36.84
10718;BME280;13513;42.700;23.124;2023-07-29T06:55:08;92893.12;;;29.58;36.04
10718;BME280;13513;42.700;23.124;2023-07-29T06:57:35;92899.92;;;29.58;35.90
10718;BME280;13513;42.700;23.124;2023-07-29T07:00:03;92895.64;;;29.80;35.35
10718;BME280;13513;42.700;23.124;2023-07-29T07:02:31;92896.99;;;30.06;35.99
10718;BME280;13513;42.700;23.124;2023-07-29T07:04:58;92897.48;;;30.67;36.21
10718;BME280;13513;42.700;23.124;2023-07-29T07:07:26;92894.62;;;31.19;34.23
10718;BME280;13513;42.700;23.124;2023-07-29T07:09:53;92893.19;;;31.12;33.11
10718;BME280;13513;42.700;23.124;2023-07-29T07:12:20;92888.71;;;30.51;34.27
10718;BME280;13513;42.700;23.124;2023-07-29T07:14:48;92889.43;;;29.70;35.75
10718;BME280;13513;42.700;23.124;2023-07-29T07:17:15;92885.70;;;30.17;34.98
10718;BME280;13513;42.700;23.124;2023-07-29T07:19:43;92885.15;;;30.47;35.30
10718;BME280;13513;42.700;23.124;2023-07-29T07:22:10;92885.68;;;30.43;34.76
10718;BME280;13513;42.700;23.124;2023-07-29T07:24:38;92883.97;;;30.74;35.22
10718;BME280;13513;42.700;23.124;2023-07-29T07:27:06;92879.08;;;31.07;33.28
10718;BME280;13513;42.700;23.124;2023-07-29T07:29:33;92886.43;;;30.70;32.92
10718;BME280;13513;42.700;23.124;2023-07-29T07:32:01;92876.78;;;30.92;33.77
10718;BME280;13513;42.700;23.124;2023-07-29T07:34:28;92876.55;;;31.08;33.20
10718;BME280;13513;42.700;23.124;2023-07-29T07:36:56;92871.16;;;31.51;32.52
10718;BME280;13513;42.700;23.124;2023-07-29T07:39:23;92872.91;;;31.30;33.90
10718;BME280;13513;42.700;23.124;2023-07-29T07:41:50;92876.72;;;31.05;32.32
10718;BME280;13513;42.700;23.124;2023-07-29T07:44:18;92869.95;;;31.69;31.71
10718;BME280;13513;42.700;23.124;2023-07-29T07:46:46;92872.30;;;31.90;32.18
10718;BME280;13513;42.700;23.124;2023-07-29T07:49:13;92876.81;;;32.46;33.16
10718;BME280;13513;42.700;23.124;2023-07-29T07:51:41;92876.94;;;32.74;34.25
10718;BME280;13513;42.700;23.124;2023-07-29T07:54:09;92879.83;;;32.68;29.65
10718;BME280;13513;42.700;23.124;2023-07-29T07:56:37;92880.58;;;32.92;29.84
10718;BME280;13513;42.700;23.124;2023-07-29T07:59:04;92873.88;;;32.90;30.41
10718;BME280;13513;42.700;23.124;2023-07-29T08:01:36;92876.08;;;31.99;32.00
10718;BME280;13513;42.700;23.124;2023-07-29T08:04:04;92880.23;;;31.82;32.27
10718;BME280;13513;42.700;23.124;2023-07-29T08:06:32;92878.56;;;32.21;32.80
10718;BME280;13513;42.700;23.124;2023-07-29T08:09:00;92881.11;;;32.20;31.99
10718;BME280;13513;42.700;23.124;2023-07-29T08:11:27;92885.02;;;32.19;31.37
10718;BME280;13513;42.700;23.124;2023-07-29T08:13:55;92884.83;;;32.49;31.28
10718;BME280;13513;42.700;23.124;2023-07-29T08:16:22;92878.08;;;33.11;30.26
10718;BME280;13513;42.700;23.124;2023-07-29T08:18:49;92885.83;;;32.88;29.31
10718;BME280;13513;42.700;23.124;2023-07-29T08:21:17;92890.00;;;31.83;30.39
10718;BME280;13513;42.700;23.124;2023-07-29T08:23:44;92888.28;;;31.68;33.18
10718;BME280;13513;42.700;23.124;2023-07-29T08:26:12;92887.89;;;32.78;30.10
10718;BME280;13513;42.700;23.124;2023-07-29T08:28:39;92885.38;;;32.79;31.84
10718;BME280;13513;42.700;23.124;2023-07-29T08:31:07;92886.48;;;33.92;29.60
10718;BME280;13513;42.700;23.124;2023-07-29T08:33:35;92884.41;;;35.37;28.23
10718;BME280;13513;42.700;23.124;2023-07-29T08:36:03;92891.89;;;34.69;26.45
10718;BME280;13513;42.700;23.124;2023-07-29T08:38:31;92885.45;;;35.21;26.64
10718;BME280;13513;42.700;23.124;2023-07-29T08:43:43;92891.20;;;35.04;26.37
10718;BME280;13513;42.700;23.124;2023-07-29T08:46:11;92882.80;;;34.96;26.63
10718;BME280;13513;42.700;23.124;2023-07-29T08:48:42;92889.41;;;35.85;23.85
10718;BME280;13513;42.700;23.124;2023-07-29T08:51:11;92882.48;;;34.66;25.15
10718;BME280;13513;42.700;23.124;2023-07-29T08:53:39;92880.03;;;34.01;25.95
10718;BME280;13513;42.700;23.124;2023-07-29T08:56:07;92875.31;;;34.15;27.76
10718;BME280;13513;42.700;23.124;2023-07-29T08:58:35;92873.16;;;34.04;26.57
10718;BME280;13513;42.700;23.124;2023-07-29T09:01:03;92867.17;;;34.72;25.15
10718;BME280;13513;42.700;23.124;2023-07-29T09:03:31;92867.17;;;34.72;25.15
10718;BME280;13513;42.700;23.124;2023-07-29T09:05:59;92872.72;;;35.55;24.30
10718;BME280;13513;42.700;23.124;2023-07-29T09:08:27;92867.31;;;36.21;24.80
10718;BME280;13513;42.700;23.124;2023-07-29T09:10:55;92869.86;;;37.01;23.78
10718;BME280;13513;42.700;23.124;2023-07-29T09:13:23;92867.77;;;37.27;24.32
10718;BME280;13513;42.700;23.124;2023-07-29T09:15:55;92863.94;;;38.50;21.90
10718;BME280;13513;42.700;23.124;2023-07-29T09:18:25;92862.78;;;39.77;21.25
10718;BME280;13513;42.700;23.124;2023-07-29T09:20:53;92864.58;;;38.46;20.44
10718;BME280;13513;42.700;23.124;2023-07-29T09:23:21;92865.00;;;39.66;20.85
10718;BME280;13513;42.700;23.124;2023-07-29T09:25:49;92860.94;;;38.18;22.39
10718;BME280;13513;42.700;23.124;2023-07-29T09:28:16;92856.68;;;37.87;22.33
10718;BME280;13513;42.700;23.124;2023-07-29T09:30:46;92863.20;;;36.43;24.00
10718;BME280;13513;42.700;23.124;2023-07-29T09:33:14;92853.72;;;36.00;23.27
10718;BME280;13513;42.700;23.124;2023-07-29T09:35:42;92845.59;;;35.21;26.42
10718;BME280;13513;42.700;23.124;2023-07-29T09:38:14;92843.55;;;33.76;25.25
10718;BME280;13513;42.700;23.124;2023-07-29T09:40:41;92841.78;;;32.12;27.83
10718;BME280;13513;42.700;23.124;2023-07-29T09:43:10;92844.50;;;31.01;29.57
10718;BME280;13513;42.700;23.124;2023-07-29T09:45:38;92842.61;;;30.26;30.65
10718;BME280;13513;42.700;23.124;2023-07-29T09:48:05;92842.64;;;30.03;30.05
10718;BME280;13513;42.700;23.124;2023-07-29T09:50:35;92841.27;;;29.77;30.57
10718;BME280;13513;42.700;23.124;2023-07-29T09:53:03;92839.98;;;30.20;31.64
10718;BME280;13513;42.700;23.124;2023-07-29T09:55:32;92843.28;;;30.66;31.68
10718;BME280;13513;42.700;23.124;2023-07-29T09:58:01;92835.39;;;31.07;32.12
10718;BME280;13513;42.700;23.124;2023-07-29T10:00:32;92834.39;;;30.85;29.90
10718;BME280;13513;42.700;23.124;2023-07-29T10:03:00;92834.73;;;30.80;31.49
10718;BME280;13513;42.700;23.124;2023-07-29T10:05:28;92828.20;;;30.42;32.31
10718;BME280;13513;42.700;23.124;2023-07-29T10:07:56;92823.20;;;30.48;33.27
10718;BME280;13513;42.700;23.124;2023-07-29T10:10:24;92828.51;;;30.21;30.19
10718;BME280;13513;42.700;23.124;2023-07-29T10:12:54;92812.44;;;30.45;32.53
10718;BME280;13513;42.700;23.124;2023-07-29T10:15:23;92813.09;;;30.81;31.77
10718;BME280;13513;42.700;23.124;2023-07-29T10:17:52;92810.47;;;30.92;29.95
10718;BME280;13513;42.700;23.124;2023-07-29T10:20:19;92815.53;;;30.90;33.05
10718;BME280;13513;42.700;23.124;2023-07-29T10:22:48;92813.78;;;30.58;32.15
10718;BME280;13513;42.700;23.124;2023-07-29T10:25:23;92807.52;;;30.58;32.04
10718;BME280;13513;42.700;23.124;2023-07-29T10:28:05;92803.25;;;30.90;31.16
10718;BME280;13513;42.700;23.124;2023-07-29T10:30:31;92800.14;;;31.11;29.70
10718;BME280;13513;42.700;23.124;2023-07-29T10:33:03;92799.22;;;31.17;32.40
10718;BME280;13513;42.700;23.124;2023-07-29T10:35:35;92800.09;;;30.88;31.18
10718;BME280;13513;42.700;23.124;2023-07-29T10:38:03;92789.72;;;31.04;32.43
10718;BME280;13513;42.700;23.124;2023-07-29T10:40:53;92797.06;;;31.16;29.20
10718;BME280;13513;42.700;23.124;2023-07-29T10:43:28;92800.56;;;30.77;29.17
10718;BME280;13513;42.700;23.124;2023-07-29T10:45:57;92794.91;;;30.63;29.29
10718;BME280;13513;42.700;23.124;2023-07-29T10:51:30;92781.32;;;30.66;29.45
10718;BME280;13513;42.700;23.124;2023-07-29T10:54:13;92784.22;;;30.64;31.24
10718;BME280;13513;42.700;23.124;2023-07-29T10:56:48;92783.50;;;30.08;30.64
10718;BME280;13513;42.700;23.124;2023-07-29T11:01:56;92779.27;;;30.23;30.63
10718;BME280;13513;42.700;23.124;2023-07-29T11:04:24;92780.39;;;30.22;30.06
10718;BME280;13513;42.700;23.124;2023-07-29T11:09:52;92779.95;;;30.66;27.47
10718;BME280;13513;42.700;23.124;2023-07-29T11:12:43;92774.33;;;30.52;27.68
10718;BME280;13513;42.700;23.124;2023-07-29T11:15:18;92767.61;;;30.76;30.31
10718;BME280;13513;42.700;23.124;2023-07-29T11:17:48;92767.28;;;30.31;29.22
10718;BME280;13513;42.700;23.124;2023-07-29T11:20:18;92769.88;;;30.54;29.97
10718;BME280;13513;42.700;23.124;2023-07-29T11:22:45;92758.61;;;30.72;29.09
10718;BME280;13513;42.700;23.124;2023-07-29T11:25:15;92766.83;;;31.15;27.78
10718;BME280;13513;42.700;23.124;2023-07-29T11:27:43;92759.45;;;31.19;31.32
10718;BME280;13513;42.700;23.124;2023-07-29T11:30:13;92762.00;;;31.45;28.71
10718;BME280;13513;42.700;23.124;2023-07-29T11:32:42;92760.34;;;31.81;26.50
10718;BME280;13513;42.700;23.124;2023-07-29T11:35:15;92763.03;;;32.08;28.08
10718;BME280;13513;42.700;23.124;2023-07-29T11:37:45;92756.42;;;32.16;27.13
10718;BME280;13513;42.700;23.124;2023-07-29T11:40:17;92756.99;;;32.12;25.38
10718;BME280;13513;42.700;23.124;2023-07-29T11:42:46;92754.22;;;31.74;26.90
10718;BME280;13513;42.700;23.124;2023-07-29T11:45:14;92749.59;;;31.55;26.91
10718;BME280;13513;42.700;23.124;2023-07-29T11:47:42;92748.66;;;31.60;28.33
10718;BME280;13513;42.700;23.124;2023-07-29T11:50:11;92748.32;;;31.96;28.42
10718;BME280;13513;42.700;23.124;2023-07-29T11:52:43;92749.49;;;31.95;26.44
10718;BME280;13513;42.700;23.124;2023-07-29T11:55:13;92743.99;;;31.64;25.94
10718;BME280;13513;42.700;23.124;2023-07-29T11:57:42;92745.03;;;31.42;27.55
10718;BME280;13513;42.700;23.124;2023-07-29T12:00:11;92739.19;;;31.74;28.69
10718;BME280;13513;42.700;23.124;2023-07-29T12:02:42;92738.37;;;32.01;28.64
10718;BME280;13513;42.700;23.124;2023-07-29T12:05:14;92729.48;;;32.21;28.63
10718;BME280;13513;42.700;23.124;2023-07-29T12:07:43;92731.77;;;32.46;26.94
10718;BME280;13513;42.700;23.124;2023-07-29T12:10:12;92736.70;;;32.57;25.22
10718;BME280;13513;42.700;23.124;2023-07-29T12:12:49;92733.14;;;32.09;25.93
10718;BME280;13513;42.700;23.124;2023-07-29T12:15:27;92728.73;;;32.28;27.24
10718;BME280;13513;42.700;23.124;2023-07-29T12:17:56;92723.51;;;32.36;26.34
10718;BME280;13513;42.700;23.124;2023-07-29T12:20:25;92723.75;;;32.51;26.25
10718;BME280;13513;42.700;23.124;2023-07-29T12:22:57;92722.61;;;32.55;26.66
10718;BME280;13513;42.700;23.124;2023-07-29T12:25:26;92720.10;;;32.70;26.89
10718;BME280;13513;42.700;23.124;2023-07-29T12:27:54;92722.77;;;32.46;26.65
10718;BME280;13513;42.700;23.124;2023-07-29T12:30:22;92725.00;;;32.23;24.50
10718;BME280;13513;42.700;23.124;2023-07-29T12:32:51;92717.94;;;32.15;24.46
10718;BME280;13513;42.700;23.124;2023-07-29T12:35:18;92715.81;;;32.18;26.13
10718;BME280;13513;42.700;23.124;2023-07-29T12:37:46;92711.61;;;32.38;26.03
10718;BME280;13513;42.700;23.124;2023-07-29T12:40:24;92716.19;;;32.68;26.26
10718;BME280;13513;42.700;23.124;2023-07-29T12:42:53;92711.55;;;32.82;24.99
10718;BME280;13513;42.700;23.124;2023-07-29T12:45:21;92713.27;;;32.81;24.83
10718;BME280;13513;42.700;23.124;2023-07-29T12:47:51;92717.78;;;32.28;25.95
10718;BME280;13513;42.700;23.124;2023-07-29T12:50:18;92713.42;;;32.09;25.88
10718;BME280;13513;42.700;23.124;2023-07-29T12:52:45;92712.70;;;32.26;25.78
10718;BME280;13513;42.700;23.124;2023-07-29T12:55:13;92712.19;;;32.37;24.59
10718;BME280;13513;42.700;23.124;2023-07-29T12:57:43;92702.48;;;32.13;26.09
10718;BME280;13513;42.700;23.124;2023-07-29T13:00:11;92703.16;;;31.89;25.14
10718;BME280;13513;42.700;23.124;2023-07-29T13:02:39;92707.30;;;31.96;26.07
10718;BME280;13513;42.700;23.124;2023-07-29T13:05:11;92709.66;;;31.97;26.65
10718;BME280;13513;42.700;23.124;2023-07-29T13:07:39;92695.11;;;32.20;26.18
10718;BME280;13513;42.700;23.124;2023-07-29T13:10:08;92703.55;;;31.87;25.09
10718;BME280;13513;42.700;23.124;2023-07-29T13:12:36;92695.45;;;31.71;28.29
10718;BME280;13513;42.700;23.124;2023-07-29T13:15:04;92699.75;;;32.13;26.51